Portada
METAR-TAF:

METAR-TAF

Aeropuertos :

Aeropuerto Internacional de Recife

Recife, Pernambuco, Brasil

latitud: 08-08S, longitud: 034-55W, altitud: 19 m

Observación

El informe se hizo hace 1 hora y 1 minutos, a las 02:00 UTC
Viento 10 kt del sureste
Temperatura 25°C
Humedad 79%
Presión 1020 hPa
Visibilidad 10 km o más
Nubes dispersas a una altura de 2000 ft

METAR: SBRF 170200Z 13010KT 9999 SCT020 25/21 Q1020

Hora: 00:01 (03:01 UTC)

Pronóstico

El informe se hizo hace 5 horas y 1 minutos, a las 22:00 UTC
Pronóstico válido del 17 a las 00 UTC al 17 a las 24 UTC
Viento 10 kt del sureste
Visibilidad 10 km o más
Nubes dispersas a una altura de 2200 ft

TAF: SBRF 162200Z 1700/1724 14010KT 9999 SCT022 TN25/1709Z TX28/1715Z RMK PCH

Observaciones y pronósticos meteorológicos de más de 4000 aeropuertos (mensajes METAR y TAF).

Los puntos amarillos y rojos representan las estaciones disponibles.

Ponga el ratón en el punto deseado para ver el nombre de la estación.

Haga clic para ver las observaciones y los pronósticos meteorológicos.

Para cambiar el mapa : haga clic en los botones verdes con una cruz de color negro para hacer un zoom, en el botón verde con un guión para alejar o en las flechas verdes para mapas adyacentes.


METAR-TAF: